Kezdőlap
METAR-TAF:

METAR-TAF

Repülőterek :

Franklin megye, Vermont, Amerikai Egyesült Államok

földrajzi szélesség: 44-56-25N, földrajzi hosszúság: 073-05-51W, magasság: 69 m

Jelenlegi meteorológiai megfigyelések

A jelentés 18 perccel ezelõtt készült, 14:56 UTC
Dél-délnyugati szél 5 kt
Hőmérséklet 9°C
Páratartalom 40%
Légköri nyomás 1018 hPa
Látótávolság: 16.1 km
Derült ég

METAR: KFSO 061456Z AUTO 20005KT 10SM CLR 09/M04 A3005 RMK AO2 T00921045

Idő: 11:14 (15:14 UTC)


TAF: hiányzik

Meteorológiai megfigyelések és előrejelzések több, mint 4000 repülőtéren (METAR és TAF jelentéseket).

A térképen piros és sárga pontok jelzik az elérhető meteorológiai állomásokat.

Mozgassa az egeret a pont fölött, hogy megjelenjen az állomás neve.

Azután kattintson az időjárási megfigyelések és előrejelzések megtekintéséhez.

A térkép megváltoztatása: kattintson a fekete keresztel jelölt zöld gombra ráközelítéshez, a vonallal jelölt zöld gombra távolításhoz, vagy a zöld nyilakra a szomszédos térképek eléréséhez.


METAR-TAF: